Gaylord, MI

11:17 AM EST on January 16, 2017 (GMT -0500)
Otsego County

Weather History for KGLR - November, 2012

Change the Weather History Date:

Monday, November 12, 2012

  Actual Average Record
Temperature  
Mean Temperature 38 °F -  
Max Temperature 53 °F 38 °F 61 °F (1964)
Min Temperature 24 °F 25 °F 10 °F (1980)
Degree Days  
Heating Degree Days 26    
Moisture  
Dew Point 31 °F    
Average Humidity 87    
Maximum Humidity 100    
Minimum Humidity 69    
Precipitation  
Precipitation 0.11 in - - ()
Sea Level Pressure  
Sea Level Pressure 29.91 in    
Wind  
Wind Speed 15 mph (WSW)    
Max Wind Speed 24 mph    
Max Gust Speed 34 mph    
Visibility 7 miles    
Events Fog , Rain , Snow    
Averages and records for this station are not official NWS values.
T = Trace of Precipitation, MM = Missing Value Source: NWS Daily Summary

Daily Weather History Graph

Daily Weather History Graph

Search for Another Location

Airport or City:

Trip Planner

Search our weather history database for the weather conditions in past years. The results will help you decide how hot, cold, wet, or windy it might be!

Date:

Astronomy

Nov. 12, 2012 Rise Set
Actual Time 7:33 AM EST 5:12 PM EST
Civil Twilight 7:01 AM EST 5:44 PM EST
Nautical Twilight 6:26 AM EST 6:19 PM EST
Astronomical Twilight 5:51 AM EST 6:53 PM EST
Moon 5:55 AM EST (11/12) 4:18 PM EST (11/12)
Length of Visible Light 10h 42m
Length of Day
9h 39m
Waning Crescent, 2% of the Moon is Illuminated
Nov 12
Waning Crescent
Nov 13
New
Nov 20
First Quarter
Nov 28
Full
Dec 6
Last Quarter

Hourly Weather History & Observations

Time (EST) Temp. Windchill Dew Point Humidity Pressure Visibility Wind Dir Wind Speed Gust Speed Precip Events Conditions
12:53 AM 53.1 °F - 51.1 °F 93% 29.79 in 5.0 mi WSW 15.0 mph 27.6 mph 0.05 in Rain Rain
1:12 AM 51.8 °F - 48.2 °F 88% 29.78 in 10.0 mi SW 11.5 mph - 0.00 in Rain Light Rain
1:46 AM 51.8 °F - 48.2 °F 88% 29.78 in 6.0 mi SW 16.1 mph - 0.01 in Rain Light Rain
1:53 AM 51.1 °F - 48.9 °F 92% 29.78 in 9.0 mi SW 17.3 mph - 0.02 in Rain Light Rain
2:14 AM 51.8 °F - 48.2 °F 88% 29.78 in 10.0 mi SW 13.8 mph 21.9 mph 0.00 in Rain Light Rain
2:53 AM 50.0 °F - 48.9 °F 96% 29.76 in 10.0 mi SSW 12.7 mph - 0.00 in   Overcast
3:01 AM 50.0 °F - 48.2 °F 94% 29.75 in 10.0 mi SSW 9.2 mph 18.4 mph N/A   Overcast
3:53 AM 50.0 °F - 48.0 °F 93% 29.76 in 10.0 mi SW 11.5 mph - N/A   Overcast
4:10 AM 50.0 °F - 48.2 °F 94% 29.75 in 10.0 mi SW 16.1 mph 21.9 mph 0.00 in Rain Light Rain
4:50 AM 44.6 °F 38.8 °F 44.6 °F 100% 29.77 in 3.0 mi West 11.5 mph 21.9 mph 0.03 in Rain Rain
4:53 AM 45.0 °F 38.9 °F 44.1 °F 97% 29.78 in 2.5 mi West 12.7 mph 21.9 mph 0.03 in Rain Light Rain
5:00 AM 44.6 °F 37.8 °F 42.8 °F 93% 29.77 in 4.0 mi West 15.0 mph 24.2 mph 0.00 in Rain Light Rain
5:28 AM 42.8 °F 35.4 °F 42.8 °F 100% 29.79 in 10.0 mi WSW 15.0 mph 23.0 mph 0.00 in Rain Light Rain
5:36 AM 42.8 °F 34.3 °F 41.0 °F 93% 29.79 in 10.0 mi WSW 19.6 mph 25.3 mph 0.00 in   Overcast
5:53 AM 42.1 °F 34.2 °F 39.9 °F 92% 29.80 in 10.0 mi WSW 16.1 mph 24.2 mph 0.00 in Rain Light Rain
6:00 AM 42.8 °F 35.4 °F 39.2 °F 87% 29.79 in 10.0 mi WSW 15.0 mph 24.2 mph 0.00 in   Overcast
6:17 AM 42.8 °F 36.2 °F 39.2 °F 87% 29.80 in 10.0 mi WSW 12.7 mph 18.4 mph 0.00 in   Overcast
6:40 AM 39.2 °F 29.8 °F 37.4 °F 93% 29.81 in 10.0 mi West 18.4 mph 24.2 mph 0.01 in Rain Light Rain
6:53 AM 39.9 °F 32.5 °F 37.9 °F 93% 29.82 in 10.0 mi West 12.7 mph - 0.01 in Rain Light Rain
7:27 AM 37.4 °F 27.8 °F 35.6 °F 93% 29.83 in 10.0 mi WSW 17.3 mph 25.3 mph 0.00 in   Overcast
7:53 AM 37.9 °F 28.9 °F 35.1 °F 89% 29.84 in 10.0 mi WSW 16.1 mph 23.0 mph 0.00 in Rain Light Rain
8:18 AM 37.4 °F 29.3 °F 35.6 °F 93% 29.83 in 10.0 mi WSW 12.7 mph - 0.00 in Rain Light Rain
8:53 AM 37.0 °F 28.9 °F 35.1 °F 93% 29.85 in 10.0 mi WSW 12.7 mph - 0.00 in   Overcast
9:01 AM 35.6 °F 25.5 °F 35.6 °F 100% 29.83 in 10.0 mi WSW 17.3 mph 23.0 mph N/A   Overcast
9:53 AM 35.1 °F 25.2 °F 34.0 °F 96% 29.86 in 5.0 mi WSW 16.1 mph 21.9 mph N/A   Overcast
10:31 AM 35.6 °F 25.9 °F 30.2 °F 81% 29.86 in 10.0 mi WSW 16.1 mph - 0.00 in   Overcast
10:53 AM 34.0 °F 23.4 °F 30.0 °F 85% 29.87 in 10.0 mi WSW 17.3 mph - 0.00 in   Overcast
11:53 AM 32.0 °F 20.5 °F 28.0 °F 85% 29.89 in 10.0 mi West 18.4 mph 26.5 mph N/A   Overcast
12:07 PM 30.2 °F 17.8 °F 26.6 °F 86% 29.87 in 10.0 mi West 19.6 mph 27.6 mph N/A   Overcast
12:31 PM 30.2 °F 17.8 °F 26.6 °F 86% 29.86 in 10.0 mi West 19.6 mph 28.8 mph N/A   Overcast
12:53 PM 30.9 °F 18.4 °F 26.1 °F 82% 29.89 in 10.0 mi WSW 20.7 mph 27.6 mph N/A   Overcast
1:16 PM 30.2 °F 19.3 °F 24.8 °F 80% 29.86 in 10.0 mi WSW 15.0 mph 25.3 mph N/A   Overcast
1:53 PM 30.9 °F 18.7 °F 24.1 °F 76% 29.90 in 10.0 mi WSW 19.6 mph 24.2 mph N/A   Overcast
2:53 PM 30.0 °F 16.6 °F 21.0 °F 69% 29.91 in 10.0 mi WSW 23.0 mph 29.9 mph N/A   Overcast
3:53 PM 30.0 °F 17.2 °F 21.0 °F 69% 29.93 in 10.0 mi WSW 20.7 mph 29.9 mph N/A   Overcast
4:25 PM 28.4 °F 14.1 °F 19.4 °F 69% 29.92 in 10.0 mi SW 24.2 mph 31.1 mph N/A   Overcast
4:53 PM 28.0 °F 13.6 °F 19.0 °F 69% 29.96 in 10.0 mi SW 24.2 mph 34.5 mph N/A   Overcast
5:53 PM 28.0 °F 16.1 °F 21.9 °F 78% 29.99 in 5.0 mi SW 16.1 mph 24.2 mph 0.00 in Snow Light Snow
6:13 PM 26.6 °F 12.7 °F 21.2 °F 80% 29.96 in 1.8 mi WSW 20.7 mph 28.8 mph 0.00 in Snow Light Snow
6:53 PM 26.1 °F 14.0 °F 23.0 °F 88% 30.01 in 1.5 mi WSW 15.0 mph - 0.00 in Snow Light Snow
7:14 PM 26.6 °F 13.4 °F 23.0 °F 86% 29.98 in 3.0 mi WSW 18.4 mph 27.6 mph 0.00 in Snow Light Snow
7:53 PM 26.1 °F 14.0 °F 23.0 °F 88% 30.04 in 1.5 mi West 15.0 mph 25.3 mph 0.00 in Snow Light Snow
8:02 PM 26.6 °F 13.4 °F 21.2 °F 80% 29.99 in 3.0 mi WSW 18.4 mph - 0.00 in Snow Light Snow
8:31 PM 26.6 °F 13.8 °F 21.2 °F 80% 30.00 in 9.0 mi WSW 17.3 mph 23.0 mph 0.00 in   Overcast
8:53 PM 25.0 °F 13.6 °F 21.0 °F 85% 30.06 in 10.0 mi WSW 12.7 mph - 0.00 in   Overcast
9:53 PM 26.1 °F 13.1 °F 19.0 °F 75% 30.07 in 10.0 mi WSW 17.3 mph 24.2 mph 0.00 in   Overcast
10:07 PM 24.8 °F 14.6 °F 19.4 °F 80% 30.04 in 2.5 mi West 10.4 mph 19.6 mph 0.00 in Snow Light Snow
10:17 PM 24.8 °F 16.1 °F 21.2 °F 86% 30.04 in 1.0 mi West 8.1 mph 20.7 mph 0.00 in Snow Light Snow
10:32 PM 24.8 °F 14.6 °F 21.2 °F 86% 30.05 in 2.0 mi West 10.4 mph - 0.00 in Snow Light Snow
10:38 PM 24.8 °F 16.9 °F 21.2 °F 86% 30.05 in 1.2 mi West 6.9 mph - 0.00 in Snow Light Snow
10:49 PM 24.8 °F 13.4 °F 21.2 °F 86% 30.05 in 2.0 mi WSW 12.7 mph 18.4 mph 0.00 in Snow Light Snow
10:53 PM 25.0 °F 14.2 °F 21.0 °F 85% 30.11 in 4.0 mi West 11.5 mph 19.6 mph 0.00 in Snow Light Snow
11:05 PM 24.8 °F 13.4 °F 21.2 °F 86% 30.06 in 1.8 mi West 12.7 mph 21.9 mph 0.00 in Snow Light Snow
11:12 PM 24.8 °F 10.7 °F 21.2 °F 86% 30.06 in 3.0 mi WSW 19.6 mph 25.3 mph 0.00 in Snow Light Snow
11:19 PM 24.8 °F 11.9 °F 19.4 °F 80% 30.06 in 7.0 mi WSW 16.1 mph 25.3 mph 0.00 in   Overcast
11:29 PM 24.8 °F 11.5 °F 21.2 °F 86% 30.07 in 0.8 mi WSW 17.3 mph - 0.00 in Snow Light Snow
11:36 PM 24.8 °F 11.1 °F 21.2 °F 86% 30.07 in 1.0 mi WSW 18.4 mph 23.0 mph 0.00 in Snow Light Snow
11:42 PM 24.8 °F 10.3 °F 21.2 °F 86% 30.08 in 1.2 mi WSW 20.7 mph 25.3 mph 0.00 in Snow Light Snow
11:53 PM 24.1 °F 11.5 °F 21.9 °F 91% 30.14 in 0.5 mi WSW 15.0 mph 23.0 mph 0.00 in Fog , Snow Snow